Time;durP1;ratioP1;P1;durP2;ratioP2;P2;SDS_P1;SDS_P2;PMS_P1;PMS_P2;Temp;Humidity;BMP_temperature;BMP_pressure;BME280_temperature;BME280_humidity;BME280_pressure;Samples;Min_cycle;Max_cycle;Signal;HPM_P1;HPM_P2
2023/01/15 00:02:25;;;;;;;0.50;0.40;;;;;;;8.87;77.00;95620.81;6246494;23;20364;-78
2023/01/15 00:04:53;;;;;;;0.90;0.30;;;;;;;8.90;77.33;95609.22;6246703;23;20016;-78
2023/01/15 00:07:20;;;;;;;0.30;0.30;;;;;;;8.94;77.21;95600.03;6246677;23;20170;-78
2023/01/15 00:09:49;;;;;;;0.70;0.30;;;;;;;8.95;77.16;95607.66;6245905;23;20020;-78
2023/01/15 00:12:17;;;;;;;1.48;0.45;;;;;;;8.97;77.26;95597.88;6246404;23;20098;-78
2023/01/15 00:14:45;;;;;;;0.17;0.17;;;;;;;8.99;77.15;95585.47;6246300;23;20352;-78
2023/01/15 00:17:13;;;;;;;0.80;0.40;;;;;;;9.01;77.17;95580.88;6246534;23;20103;-78
2023/01/15 00:19:40;;;;;;;0.45;0.32;;;;;;;9.03;76.99;95571.06;6245441;23;20030;-78
2023/01/15 00:22:08;;;;;;;0.65;0.52;;;;;;;9.05;77.04;95574.28;6246387;23;20016;-78
2023/01/15 00:27:41;;;;;;;0.43;0.30;;;;;;;9.11;76.42;95561.47;6246629;23;20148;-78
2023/01/15 00:30:11;;;;;;;0.38;0.38;;;;;;;9.13;75.86;95559.47;6245914;23;20019;-78
2023/01/15 00:32:39;;;;;;;0.70;0.13;;;;;;;9.16;75.78;95548.66;6246003;23;20020;-78
2023/01/15 00:35:08;;;;;;;1.05;0.50;;;;;;;9.20;75.96;95539.47;6246374;23;20016;-78
2023/01/15 00:37:35;;;;;;;1.45;0.30;;;;;;;9.20;76.05;95527.25;6245881;23;20099;-78
2023/01/15 00:40:04;;;;;;;0.38;0.38;;;;;;;9.22;75.96;95532.25;6245355;23;20099;-78
2023/01/15 00:42:33;;;;;;;0.20;0.20;;;;;;;9.24;75.43;95519.84;6245409;23;20020;-78
2023/01/15 00:45:06;;;;;;;1.55;0.20;;;;;;;9.28;75.31;95521.06;6246098;23;20043;-78
2023/01/15 00:47:34;;;;;;;2.58;0.20;;;;;;;9.33;75.08;95520.47;6246037;23;20031;-78
2023/01/15 00:50:01;;;;;;;0.32;0.10;;;;;;;9.35;74.99;95529.66;6245119;23;20036;-78
2023/01/15 00:52:29;;;;;;;0.77;0.20;;;;;;;9.38;75.08;95516.25;6245500;23;20024;-78
2023/01/15 00:54:56;;;;;;;1.25;0.30;;;;;;;9.41;74.75;95515.84;6245631;23;20020;-78
2023/01/15 00:57:24;;;;;;;0.25;0.10;;;;;;;9.45;74.78;95516.25;6245889;23;20050;-78
2023/01/15 00:59:53;;;;;;;0.25;0.13;;;;;;;9.48;74.27;95516.63;6244168;23;20464;-78
2023/01/15 01:02:20;;;;;;;0.28;0.15;;;;;;;9.48;73.90;95506.22;6245404;23;20026;-78
2023/01/15 01:04:48;;;;;;;0.20;0.17;;;;;;;9.51;74.03;95504.22;6245447;23;20023;-78
2023/01/15 01:07:17;;;;;;;0.10;0.10;;;;;;;9.53;73.80;95499.63;6245857;23;20043;-78
2023/01/15 01:09:45;;;;;;;0.10;0.10;;;;;;;9.56;73.43;95507.84;6244501;23;20023;-78
2023/01/15 01:12:12;;;;;;;1.15;0.38;;;;;;;9.58;72.89;95503.22;6245797;23;20091;-78
2023/01/15 01:14:40;;;;;;;0.60;0.40;;;;;;;9.60;72.93;95503.00;6256269;23;20047;-78
2023/01/15 01:17:08;;;;;;;0.25;0.17;;;;;;;9.62;72.54;95506.22;6260011;23;20039;-78
2023/01/15 01:19:36;;;;;;;0.20;0.20;;;;;;;9.64;73.19;95492.00;6247407;23;20020;-78
2023/01/15 01:22:04;;;;;;;0.20;0.20;;;;;;;9.66;72.82;95497.00;6246273;23;20044;-78
2023/01/15 01:24:31;;;;;;;0.32;0.20;;;;;;;9.67;72.61;95488.19;6245834;23;20020;-78
2023/01/15 01:26:59;;;;;;;0.10;0.10;;;;;;;9.67;72.85;95496.00;6245522;23;20020;-78
2023/01/15 01:29:26;;;;;;;0.05;0.05;;;;;;;9.66;72.14;95484.81;6244829;23;20348;-78
2023/01/15 01:31:54;;;;;;;0.10;0.10;;;;;;;9.67;72.85;95488.19;6245666;23;20024;-79
2023/01/15 01:34:23;;;;;;;0.20;0.10;;;;;;;9.65;73.23;95480.59;6245381;23;20310;-78
2023/01/15 01:36:50;;;;;;;0.50;0.30;;;;;;;9.62;73.26;95474.97;6245598;23;20016;-78
2023/01/15 01:39:19;;;;;;;0.10;0.10;;;;;;;9.58;72.36;95468.59;6244372;23;20520;-78
2023/01/15 01:41:47;;;;;;;1.77;0.28;;;;;;;9.59;71.66;95464.97;6245698;23;20020;-78
2023/01/15 01:44:57;;;;;;;0.40;0.25;;;;;;;9.63;70.94;95453.16;6246440;23;20472;-78
2023/01/15 01:47:28;;;;;;;0.80;0.30;;;;;;;9.63;71.57;95455.75;6210118;23;20046;-78
2023/01/15 01:50:01;;;;;;;0.28;0.28;;;;;;;9.61;71.91;95437.72;6246002;23;20023;-78
2023/01/15 01:52:34;;;;;;;1.17;0.65;;;;;;;9.55;71.82;95440.34;6245577;23;20020;-78
2023/01/15 01:55:02;;;;;;;1.45;0.30;;;;;;;9.55;71.33;95437.75;6245513;23;20379;-78
2023/01/15 01:57:30;;;;;;;2.20;0.25;;;;;;;9.55;71.07;95438.53;6245077;23;20387;-78
2023/01/15 01:59:59;;;;;;;1.80;0.30;;;;;;;9.54;70.65;95430.94;6244562;23;20026;-78
2023/01/15 02:02:28;;;;;;;1.20;0.57;;;;;;;9.54;71.33;95436.94;6245604;23;20035;-78
2023/01/15 02:04:56;;;;;;;0.20;0.20;;;;;;;9.55;70.76;95422.13;6245331;23;20024;-78
2023/01/15 02:07:26;;;;;;;0.93;0.30;;;;;;;9.55;71.24;95437.75;6245201;23;20024;-78
2023/01/15 02:09:53;;;;;;;0.45;0.20;;;;;;;9.56;70.89;95423.75;6243931;23;20047;-77
2023/01/15 02:12:28;;;;;;;0.85;0.20;;;;;;;9.57;70.20;95425.31;6244947;23;20456;-78
2023/01/15 02:15:03;;;;;;;0.47;0.25;;;;;;;9.56;70.48;95413.31;6244819;23;20027;-77
2023/01/15 02:17:35;;;;;;;0.90;0.30;;;;;;;9.52;71.64;95414.72;6244897;23;20456;-77
2023/01/15 02:20:16;;;;;;;;;;;;;;;9.49;71.63;95411.53;6244904;23;20067;-77
2023/01/15 02:22:57;;;;;;;0.60;0.22;;;;;;;9.45;71.25;95399.91;6245204;23;20366;-77
2023/01/15 02:25:32;;;;;;;0.45;0.30;;;;;;;9.45;70.61;95394.72;6245196;23;20044;-77
2023/01/15 02:28:07;;;;;;;0.45;0.45;;;;;;;9.46;71.32;95377.28;6244281;23;20020;-78
2023/01/15 02:30:41;;;;;;;0.30;0.30;;;;;;;9.47;70.03;95387.50;6245185;23;20020;-78
2023/01/15 02:33:13;;;;;;;0.30;0.30;;;;;;;9.51;69.67;95384.47;6245054;23;20020;-78
2023/01/15 02:35:45;;;;;;;0.93;0.20;;;;;;;9.51;69.20;95384.47;6245050;23;20024;-78
2023/01/15 02:38:16;;;;;;;;;;;;;;;9.52;69.71;95380.88;6244118;23;20474;-77
2023/01/15 02:40:43;;;;;;;0.63;0.30;;;;;;;9.54;69.36;95378.88;6244952;23;20019;-78
2023/01/15 02:43:15;;;;;;;0.73;0.30;;;;;;;9.54;70.87;95381.50;6244544;23;20495;-77
2023/01/15 02:45:47;;;;;;;0.30;0.17;;;;;;;9.53;70.30;95383.25;6245057;23;20020;-77
2023/01/15 02:48:18;;;;;;;3.40;0.37;;;;;;;9.53;70.70;95382.47;6244105;23;20356;-78
2023/01/15 02:50:52;;;;;;;0.20;0.20;;;;;;;9.51;69.42;95377.50;6244812;23;20059;-78
2023/01/15 02:53:24;;;;;;;0.57;0.47;;;;;;;9.54;70.75;95376.28;6244713;23;20511;-78
2023/01/15 02:55:56;;;;;;;1.67;0.20;;;;;;;9.57;71.33;95381.06;6244473;23;20030;-78
2023/01/15 02:58:28;;;;;;;0.52;0.20;;;;;;;9.55;70.41;95383.06;6244060;23;20024;-77
2023/01/15 03:00:59;;;;;;;0.13;0.10;;;;;;;9.55;70.16;95364.84;6244442;23;20032;-78
2023/01/15 03:03:38;;;;;;;0.10;0.10;;;;;;;9.56;70.14;95376.88;6245285;23;20020;-78
2023/01/15 03:06:14;;;;;;;0.20;0.10;;;;;;;9.57;69.65;95360.25;6244852;23;20028;-77
2023/01/15 03:08:41;;;;;;;0.30;0.20;;;;;;;9.61;69.94;95356.22;6244035;23;20026;-78
2023/01/15 03:11:12;;;;;;;0.17;0.10;;;;;;;9.64;69.63;95368.81;6244824;23;20415;-78
2023/01/15 03:13:47;;;;;;;0.30;0.20;;;;;;;9.67;69.64;95371.81;6245273;23;20376;-78
2023/01/15 03:16:34;;;;;;;0.13;0.10;;;;;;;9.70;69.65;95360.97;6244732;23;20021;-78
2023/01/15 03:19:09;;;;;;;0.63;0.17;;;;;;;9.74;69.55;95361.38;6244086;23;20106;-78
2023/01/15 03:21:44;;;;;;;0.50;0.30;;;;;;;9.78;69.14;95353.97;6244850;23;20103;-78
2023/01/15 03:24:14;;;;;;;0.10;0.10;;;;;;;9.79;70.80;95356.34;6245552;23;20026;-78
2023/01/15 03:26:42;;;;;;;0.22;0.10;;;;;;;9.80;70.68;95354.56;6246857;23;20016;-78
2023/01/15 03:29:13;;;;;;;0.15;0.15;;;;;;;9.82;70.20;95355.16;6245964;23;20020;-78
2023/01/15 03:31:43;;;;;;;0.25;0.10;;;;;;;9.84;70.38;95355.75;6246871;23;20344;-78
2023/01/15 03:34:11;;;;;;;0.40;0.08;;;;;;;9.87;71.04;95357.91;6246589;23;20095;-78
2023/01/15 03:36:39;;;;;;;0.10;0.10;;;;;;;9.94;71.05;95363.88;6246845;23;20016;-78
2023/01/15 03:39:06;;;;;;;0.13;0.05;;;;;;;9.99;71.34;95350.25;6245793;23;20027;-79
2023/01/15 03:41:45;;;;;;;0.00;0.00;;;;;;;10.02;72.09;95355.84;6246213;23;20024;-78
2023/01/15 03:44:25;;;;;;;0.70;0.22;;;;;;;10.06;72.09;95361.44;6246448;23;20094;-78
2023/01/15 03:47:04;;;;;;;1.17;0.10;;;;;;;10.06;72.43;95357.03;6246388;23;20020;-78
2023/01/15 03:49:44;;;;;;;0.10;0.10;;;;;;;10.09;71.64;95355.81;6245706;23;20050;-77
2023/01/15 03:52:16;;;;;;;0.17;0.10;;;;;;;10.08;72.35;95344.59;6246587;23;20091;-78
2023/01/15 03:54:50;;;;;;;0.60;0.10;;;;;;;10.08;72.62;95355.00;6246991;23;20023;-78
2023/01/15 03:57:27;;;;;;;0.52;0.20;;;;;;;10.06;72.81;95346.59;6246671;23;20388;-78
2023/01/15 03:59:58;;;;;;;0.38;0.10;;;;;;;10.04;72.99;95350.44;6247406;23;20387;-79
2023/01/15 04:02:27;;;;;;;2.00;0.22;;;;;;;10.03;73.01;95354.81;6259292;23;20409;-78
2023/01/15 04:04:57;;;;;;;1.60;0.60;;;;;;;10.02;73.29;95344.63;6256611;23;20027;-78
2023/01/15 04:07:26;;;;;;;0.28;0.10;;;;;;;10.00;73.15;95336.22;6247568;23;20428;-78
2023/01/15 04:09:54;;;;;;;0.32;0.17;;;;;;;9.98;73.38;95325.22;6245384;23;20023;-78
2023/01/15 04:12:21;;;;;;;0.47;0.20;;;;;;;9.93;73.52;95330.22;6246615;23;20030;-78
2023/01/15 04:14:49;;;;;;;0.75;0.20;;;;;;;9.87;73.73;95322.25;6246213;23;20486;-78
2023/01/15 04:17:17;;;;;;;0.50;0.25;;;;;;;9.83;74.24;95320.28;6246182;23;20024;-78
2023/01/15 04:19:45;;;;;;;0.30;0.20;;;;;;;9.79;74.29;95314.66;6245372;23;20024;-78
2023/01/15 04:22:12;;;;;;;1.17;0.10;;;;;;;9.77;74.74;95316.69;6246311;23;20020;-78
2023/01/15 04:24:40;;;;;;;0.45;0.20;;;;;;;9.76;74.80;95320.31;6245946;23;20361;-78
2023/01/15 04:27:08;;;;;;;1.20;0.35;;;;;;;9.75;74.93;95315.28;6245995;23;20551;-78
2023/01/15 04:29:35;;;;;;;0.10;0.10;;;;;;;9.76;75.08;95314.31;6245736;23;20024;-78
2023/01/15 04:32:03;;;;;;;0.10;0.10;;;;;;;9.74;75.32;95306.69;6246311;23;20479;-78
2023/01/15 04:34:34;;;;;;;1.30;0.30;;;;;;;9.72;75.31;95298.28;6246057;23;20020;-78
2023/01/15 04:37:01;;;;;;;0.30;0.20;;;;;;;9.73;75.41;95299.06;6245737;23;20020;-78
2023/01/15 04:39:29;;;;;;;0.43;0.20;;;;;;;9.69;75.60;95278.69;6245273;23;20020;-78
2023/01/15 04:44:42;;;;;;;0.45;0.13;;;;;;;9.66;75.93;95283.50;6245920;23;20016;-78
2023/01/15 04:47:09;;;;;;;0.73;0.20;;;;;;;9.64;75.90;95286.31;6245423;23;20461;-78
2023/01/15 04:49:38;;;;;;;1.30;0.30;;;;;;;9.63;75.78;95283.91;6245332;23;20107;-78
2023/01/15 04:52:06;;;;;;;0.15;0.10;;;;;;;9.62;75.81;95272.72;6245366;23;20107;-77
2023/01/15 04:54:33;;;;;;;0.95;0.40;;;;;;;9.61;75.84;95259.91;6246354;23;20020;-78
2023/01/15 04:57:01;;;;;;;0.60;0.30;;;;;;;9.61;76.09;95259.91;6245983;23;20102;-78
2023/01/15 04:59:28;;;;;;;0.52;0.25;;;;;;;9.61;76.24;95259.91;6245123;23;20535;-78
2023/01/15 05:01:56;;;;;;;1.67;0.45;;;;;;;9.58;76.18;95261.13;6246067;23;20043;-78
2023/01/15 05:04:33;;;;;;;0.55;0.40;;;;;;;9.56;76.73;95257.13;6246589;23;20024;-79
2023/01/15 05:07:03;;;;;;;1.23;0.57;;;;;;;9.53;76.28;95257.53;6246017;23;20416;-79
2023/01/15 05:09:32;;;;;;;1.02;0.63;;;;;;;9.48;76.49;95245.94;6244865;23;20016;-78
2023/01/15 05:12:00;;;;;;;4.30;1.60;;;;;;;9.45;76.26;95255.97;6245669;23;20027;-78
2023/01/15 05:14:27;;;;;;;4.63;1.50;;;;;;;9.44;76.61;95260.34;6246216;23;20024;-79
2023/01/15 05:16:55;;;;;;;2.90;1.08;;;;;;;9.43;76.54;95250.19;6245782;23;20020;-78
2023/01/15 05:19:23;;;;;;;3.08;1.40;;;;;;;9.41;76.96;95250.38;6244467;23;20016;-78
2023/01/15 05:21:51;;;;;;;2.08;0.98;;;;;;;9.39;77.06;95251.59;6245543;23;20020;-81
2023/01/15 05:24:20;;;;;;;4.35;1.90;;;;;;;9.39;77.22;95254.19;6245811;23;20024;-80
2023/01/15 05:26:47;;;;;;;3.55;1.55;;;;;;;9.38;77.14;95248.19;6245810;23;20027;-79
2023/01/15 05:29:15;;;;;;;3.83;2.22;;;;;;;9.38;77.45;95245.59;6244698;23;20024;-78
2023/01/15 05:31:43;;;;;;;2.65;1.13;;;;;;;9.34;77.48;95246.22;6245345;23;20022;-78
2023/01/15 05:34:12;;;;;;;0.55;0.45;;;;;;;9.34;77.23;95249.63;6245034;23;20019;-78
2023/01/15 05:36:40;;;;;;;0.98;0.50;;;;;;;9.33;77.09;95263.63;6245255;23;20055;-78
2023/01/15 05:39:08;;;;;;;0.85;0.40;;;;;;;9.36;77.01;95258.00;6244797;23;20020;-78
2023/01/15 05:41:49;;;;;;;0.22;0.20;;;;;;;9.44;76.78;95267.38;6245353;23;20024;-78
2023/01/15 05:44:20;;;;;;;0.10;0.10;;;;;;;9.45;76.69;95267.19;6245265;23;20032;-78
2023/01/15 05:46:49;;;;;;;0.10;0.10;;;;;;;9.49;76.77;95260.56;6245306;23;20043;-78
2023/01/15 05:49:19;;;;;;;0.30;0.10;;;;;;;9.50;77.09;95250.94;6244975;23;20099;-79
2023/01/15 05:51:47;;;;;;;0.32;0.13;;;;;;;9.49;77.08;95268.38;6245497;23;20048;-79
2023/01/15 05:54:16;;;;;;;0.52;0.10;;;;;;;9.54;76.54;95264.34;6245495;23;20020;-78
2023/01/15 05:56:45;;;;;;;0.20;0.20;;;;;;;9.62;76.43;95264.09;6245401;23;20016;-78
2023/01/15 05:59:15;;;;;;;0.20;0.00;;;;;;;9.70;76.34;95266.44;6244604;23;20403;-78
2023/01/15 06:01:42;;;;;;;0.10;0.10;;;;;;;9.79;76.15;95272.22;6244990;23;20502;-78
2023/01/15 06:04:12;;;;;;;0.00;0.00;;;;;;;9.85;75.75;95261.75;6245593;23;20103;-79
2023/01/15 06:06:41;;;;;;;0.00;0.00;;;;;;;9.94;75.43;95279.75;6245147;23;20452;-78
2023/01/15 06:09:08;;;;;;;0.20;0.10;;;;;;;9.98;75.01;95281.72;6244045;23;20460;-78
2023/01/15 06:11:36;;;;;;;0.00;0.00;;;;;;;10.03;74.97;95268.06;6245306;23;20031;-78
2023/01/15 06:14:05;;;;;;;0.10;0.10;;;;;;;10.08;74.73;95265.63;6245152;23;20042;-78
2023/01/15 06:16:33;;;;;;;0.10;0.10;;;;;;;10.11;74.83;95270.41;6245314;23;20016;-78
2023/01/15 06:19:02;;;;;;;0.20;0.10;;;;;;;10.15;74.50;95271.59;6245307;23;20020;-78
2023/01/15 06:21:30;;;;;;;0.22;0.10;;;;;;;10.18;74.54;95271.16;6247731;23;20059;-78
2023/01/15 06:23:58;;;;;;;0.65;0.10;;;;;;;10.21;74.81;95269.94;6246202;23;20099;-78
2023/01/15 06:26:26;;;;;;;0.65;0.10;;;;;;;10.23;75.14;95299.19;6246210;23;20044;-78
2023/01/15 06:28:54;;;;;;;0.20;0.17;;;;;;;10.21;75.05;95328.09;6244959;23;20043;-77
2023/01/15 06:31:25;;;;;;;0.00;0.00;;;;;;;10.03;75.09;95322.75;6245154;23;20029;-78
2023/01/15 06:33:53;;;;;;;0.10;0.10;;;;;;;9.82;75.28;95335.09;6244942;23;20027;-77
2023/01/15 06:36:24;;;;;;;0.17;0.03;;;;;;;9.64;75.67;95348.00;6244709;23;20039;-78
2023/01/15 06:38:52;;;;;;;0.10;0.10;;;;;;;9.46;76.15;95357.25;6244666;23;20022;-78
2023/01/15 06:47:23;;;;;;;0.00;0.00;;;;;;;9.06;77.15;95378.16;6232393;23;20023;-78
2023/01/15 06:49:53;;;;;;;0.15;0.10;;;;;;;8.97;76.96;95381.19;6259916;23;20023;-78
2023/01/15 06:52:24;;;;;;;0.10;0.10;;;;;;;8.87;77.84;95382.38;6253926;23;20344;-78
2023/01/15 06:54:52;;;;;;;0.13;0.10;;;;;;;8.82;78.25;95397.00;6246007;23;20020;-78
2023/01/15 06:57:19;;;;;;;0.10;0.10;;;;;;;8.79;77.83;95397.38;6245416;23;20498;-78
2023/01/15 06:59:47;;;;;;;0.22;0.10;;;;;;;8.77;78.19;95409.81;6244649;23;20024;-78
2023/01/15 07:02:17;;;;;;;0.08;0.08;;;;;;;8.70;77.71;95411.56;6245231;23;20047;-77
2023/01/15 07:04:44;;;;;;;1.52;0.40;;;;;;;8.65;78.94;95417.38;6247696;23;20070;-78
2023/01/15 07:07:12;;;;;;;0.63;0.50;;;;;;;8.65;78.66;95415.56;6245487;23;20026;-79
2023/01/15 07:12:22;;;;;;;0.13;0.10;;;;;;;8.60;78.54;95425.78;6214126;22;20060;-80
2023/01/15 07:14:50;;;;;;;0.28;0.20;;;;;;;8.57;77.97;95415.78;6247957;23;20409;-81
2023/01/15 07:17:23;;;;;;;0.10;0.10;;;;;;;8.48;77.50;95427.34;6246017;23;20020;-82
2023/01/15 07:19:51;;;;;;;1.35;0.08;;;;;;;8.39;77.35;95431.09;6238565;22;20040;-80
2023/01/15 07:22:19;;;;;;;0.08;0.03;;;;;;;8.27;77.44;95440.47;6219244;23;20017;-79
2023/01/15 07:24:47;;;;;;;0.55;0.22;;;;;;;8.17;77.79;95444.22;6249812;23;20029;-77
2023/01/15 07:27:14;;;;;;;0.32;0.10;;;;;;;8.10;77.84;95460.78;6245460;23;20024;-78
2023/01/15 07:29:42;;;;;;;0.75;0.13;;;;;;;8.04;78.29;95467.53;6245327;23;20091;-77
2023/01/15 07:32:11;;;;;;;0.10;0.10;;;;;;;7.99;78.06;95475.91;6247191;23;20075;-80
2023/01/15 07:54:28;;;;;;;25.40;12.07;;;;;;;7.84;76.49;95534.97;6093962;23;20030;-80
2023/01/15 07:57:48;;;;;;;7.18;3.72;;;;;;;7.69;77.11;95544.66;6186466;23;20080;-80
2023/01/15 08:00:20;;;;;;;0.30;0.20;;;;;;;7.56;77.85;95542.75;6183984;23;20100;-79
2023/01/15 08:02:49;;;;;;;0.28;0.20;;;;;;;7.51;78.53;95553.69;6186418;23;20597;-79
2023/01/15 08:05:18;;;;;;;0.13;0.13;;;;;;;7.48;78.27;95564.47;6183952;23;20036;-78
2023/01/15 08:07:47;;;;;;;0.17;0.10;;;;;;;7.45;78.93;95569.22;6183775;23;20075;-77
2023/01/15 08:10:15;;;;;;;0.60;0.60;;;;;;;7.42;78.57;95568.59;6185367;23;20080;-78
2023/01/15 08:15:32;;;;;;;0.38;0.38;;;;;;;7.21;77.19;95582.41;6186190;23;20524;-78
2023/01/15 08:18:00;;;;;;;1.40;0.22;;;;;;;7.14;78.13;95609.25;6191937;23;20021;-80
2023/01/15 08:20:29;;;;;;;0.10;0.10;;;;;;;7.01;76.90;95618.50;6190247;23;20037;-79
2023/01/15 08:23:00;;;;;;;0.32;0.30;;;;;;;6.87;76.86;95629.72;6187442;23;20025;-79
2023/01/15 08:25:28;;;;;;;0.10;0.10;;;;;;;6.77;76.68;95629.19;6185349;23;20067;-79
2023/01/15 08:27:55;;;;;;;1.00;0.20;;;;;;;6.69;76.99;95640.47;6186101;23;20025;-79
2023/01/15 08:30:25;;;;;;;2.13;0.30;;;;;;;6.63;77.27;95636.00;6187021;23;20021;-78
2023/01/15 08:32:53;;;;;;;83.80;42.85;;;;;;;6.59;78.38;95647.72;6187037;23;20017;-79
2023/01/15 08:35:20;;;;;;;9.15;4.03;;;;;;;6.62;78.01;95623.22;6186779;23;20013;-80
2023/01/15 08:37:50;;;;;;;0.90;0.40;;;;;;;6.62;77.49;95633.59;6185945;23;20063;-78
2023/01/15 08:40:18;;;;;;;0.30;0.20;;;;;;;6.58;77.85;95631.38;6187182;23;20071;-79
2023/01/15 08:42:46;;;;;;;0.10;0.10;;;;;;;6.56;77.45;95630.75;6187892;23;20080;-80
2023/01/15 08:47:59;;;;;;;0.22;0.13;;;;;;;6.51;77.09;95633.06;6199416;22;20027;-80
2023/01/15 08:50:27;;;;;;;0.95;0.20;;;;;;;6.50;77.00;95630.66;6217192;23;20056;-79
2023/01/15 08:52:56;;;;;;;1.05;0.20;;;;;;;6.48;77.19;95627.44;6229908;23;20024;-79
2023/01/15 08:58:37;;;;;;;0.40;0.30;;;;;;;6.53;78.08;95635.47;6242996;22;20038;-79
2023/01/15 09:01:05;;;;;;;0.70;0.38;;;;;;;6.54;77.61;95640.47;6277196;22;20103;-79
2023/01/15 09:03:33;;;;;;;16.48;10.10;;;;;;;6.53;78.37;95641.44;6257172;22;20016;-79
2023/01/15 09:06:01;;;;;;;5.85;4.00;;;;;;;6.59;78.01;95661.47;6252228;23;20099;-80
2023/01/15 09:08:30;;;;;;;1.23;0.70;;;;;;;6.61;77.17;95674.25;6212472;22;20516;-81
2023/01/15 09:10:59;;;;;;;0.40;0.40;;;;;;;6.60;77.04;95668.28;6215537;23;20036;-81
2023/01/15 09:13:26;;;;;;;0.47;0.20;;;;;;;6.60;76.82;95676.03;6233944;23;20091;-80
2023/01/15 09:15:54;;;;;;;0.28;0.20;;;;;;;6.56;77.29;95672.19;6245905;23;20020;-80
2023/01/15 09:18:22;;;;;;;0.20;0.20;;;;;;;6.53;76.66;95682.13;6244970;23;20021;-80
2023/01/15 09:20:50;;;;;;;0.10;0.10;;;;;;;6.46;77.00;95686.41;6244765;23;20048;-80
2023/01/15 09:23:18;;;;;;;0.30;0.30;;;;;;;6.44;77.96;95694.34;6245451;23;20047;-80
2023/01/15 09:25:53;;;;;;;0.17;0.17;;;;;;;6.41;76.98;95692.13;6245743;23;20146;-80
2023/01/15 09:28:21;;;;;;;0.30;0.30;;;;;;;6.39;77.49;95702.66;6246251;23;20275;-80
2023/01/15 09:30:49;;;;;;;0.20;0.20;;;;;;;6.44;77.80;95698.72;6246846;23;20048;-80
2023/01/15 09:33:17;;;;;;;0.30;0.25;;;;;;;6.46;77.18;95692.38;6246023;23;20020;-80
2023/01/15 09:35:45;;;;;;;0.35;0.35;;;;;;;6.47;77.16;95704.38;6251154;23;20027;-80
2023/01/15 09:38:13;;;;;;;0.20;0.20;;;;;;;6.46;77.03;95692.38;6262023;23;20042;-81
2023/01/15 09:41:03;;;;;;;0.30;0.28;;;;;;;6.43;76.67;95684.97;6260167;23;20096;-80
2023/01/15 09:48:23;;;;;;;0.40;0.13;;;;;;;6.35;76.93;95706.56;6197710;22;20032;-77
2023/01/15 09:51:02;;;;;;;0.10;0.10;;;;;;;6.35;77.04;95710.97;6213104;23;20020;-79
2023/01/15 09:53:44;;;;;;;0.25;0.20;;;;;;;6.30;76.75;95708.09;6215437;23;20056;-79
2023/01/15 09:56:20;;;;;;;0.05;0.05;;;;;;;6.22;76.73;95726.31;6215254;23;20467;-80
2023/01/15 09:58:47;;;;;;;13.30;7.72;;;;;;;6.19;76.82;95732.66;6236525;23;20020;-78
2023/01/15 10:01:20;;;;;;;16.90;8.70;;;;;;;6.14;77.05;95740.94;6244069;23;20022;-80
2023/01/15 10:03:52;;;;;;;0.70;0.50;;;;;;;6.14;76.87;95746.13;6245146;23;20020;-80
2023/01/15 10:06:23;;;;;;;0.20;0.20;;;;;;;6.12;77.85;95752.44;6245039;23;20345;-80
2023/01/15 10:09:00;;;;;;;2.78;1.05;;;;;;;6.09;77.16;95751.00;6244164;23;20027;-81
2023/01/15 10:14:37;;;;;;;0.95;0.52;;;;;;;6.03;77.33;95750.88;6243635;23;20503;-81
2023/01/15 10:17:19;;;;;;;0.63;0.60;;;;;;;5.99;77.08;95758.19;6245236;23;20095;-81
2023/01/15 10:19:47;;;;;;;1.73;1.00;;;;;;;5.91;77.92;95750.47;6246387;23;20017;-81
2023/01/15 10:22:24;;;;;;;0.40;0.40;;;;;;;5.96;77.97;95748.19;6268943;23;20020;-81
2023/01/15 10:24:56;;;;;;;2.10;1.13;;;;;;;5.95;77.04;95742.22;6270785;23;20024;-80
2023/01/15 10:27:27;;;;;;;1.55;0.88;;;;;;;5.91;77.42;95735.75;6259321;23;20020;-82
2023/01/15 10:30:01;;;;;;;0.57;0.57;;;;;;;5.91;78.36;95751.28;6257556;23;20018;-80
2023/01/15 10:32:43;;;;;;;0.32;0.32;;;;;;;5.96;79.18;95743.81;6249463;23;20098;-80
2023/01/15 10:35:40;;;;;;;0.30;0.30;;;;;;;5.97;77.55;95734.28;6246360;23;20552;-82
2023/01/15 10:38:16;;;;;;;0.10;0.10;;;;;;;5.94;77.93;95734.59;6247796;23;20020;-82
2023/01/15 10:41:04;;;;;;;0.25;0.20;;;;;;;5.90;77.49;95754.03;6245964;23;20075;-80
2023/01/15 10:43:44;;;;;;;0.30;0.10;;;;;;;5.88;76.10;95751.63;6239901;23;20020;-82
2023/01/15 10:46:14;;;;;;;0.40;0.20;;;;;;;5.82;77.13;95770.44;6245345;23;20103;-82
2023/01/15 10:48:46;;;;;;;0.30;0.20;;;;;;;5.72;76.61;95768.06;6244639;23;20027;-81
2023/01/15 10:51:17;;;;;;;0.20;0.20;;;;;;;5.67;77.11;95775.53;6245191;23;20020;-81
2023/01/15 10:53:49;;;;;;;0.10;0.10;;;;;;;5.63;77.02;95789.78;6245393;23;20047;-82
2023/01/15 10:56:28;;;;;;;0.22;0.10;;;;;;;5.61;76.76;95791.72;6245363;23;20027;-81
2023/01/15 10:59:04;;;;;;;1.13;0.13;;;;;;;5.55;76.72;95798.41;6246794;23;20360;-81
2023/01/15 11:01:31;;;;;;;1.17;0.50;;;;;;;5.57;77.40;95790.47;6245107;23;20024;-81
2023/01/15 11:04:01;;;;;;;49.75;28.10;;;;;;;5.63;77.38;95789.78;6245389;23;20024;-81
2023/01/15 11:06:31;;;;;;;6.35;2.85;;;;;;;5.69;77.63;95794.28;6245020;23;20033;-81
2023/01/15 11:08:59;;;;;;;0.95;0.50;;;;;;;5.73;77.56;95798.16;6244544;23;20080;-81
2023/01/15 11:20:15;;;;;;;0.55;0.20;;;;;;;5.67;75.90;95798.81;6245556;23;20096;-79
2023/01/15 11:22:44;;;;;;;0.22;0.10;;;;;;;5.61;76.81;95801.28;6245767;23;20020;-79
2023/01/15 11:25:12;;;;;;;0.10;0.10;;;;;;;5.57;76.42;95800.81;6245445;23;20024;-77
2023/01/15 11:27:40;;;;;;;0.35;0.10;;;;;;;5.55;76.73;95807.94;6245395;23;20098;-77
2023/01/15 11:30:27;;;;;;;0.10;0.10;;;;;;;5.42;76.45;95813.66;6244246;23;20028;-78
2023/01/15 11:32:57;;;;;;;0.10;0.10;;;;;;;5.31;76.68;95816.59;6246465;23;20460;-77
2023/01/15 11:35:26;;;;;;;0.20;0.20;;;;;;;5.25;76.90;95830.22;6246310;23;20095;-78
2023/01/15 11:38:05;;;;;;;0.13;0.13;;;;;;;5.21;76.25;95827.16;6247232;23;20024;-81
2023/01/15 11:40:33;;;;;;;0.63;0.45;;;;;;;5.24;77.13;95844.91;6247547;23;20027;-82
2023/01/15 11:51:31;;;;;;;0.32;0.10;;;;;;;5.03;75.75;95875.66;6246823;23;20023;-80
2023/01/15 11:54:02;;;;;;;0.93;0.10;;;;;;;5.01;77.00;95875.84;6253916;23;20024;-79
2023/01/15 11:56:33;;;;;;;0.10;0.10;;;;;;;4.99;76.38;95877.78;6246706;23;20035;-79
2023/01/15 11:59:03;;;;;;;0.13;0.10;;;;;;;4.98;76.73;95878.75;6246000;23;20020;-79
2023/01/15 12:01:33;;;;;;;0.57;0.20;;;;;;;5.03;77.27;95888.59;6248215;23;20027;-76
2023/01/15 12:04:05;;;;;;;2.28;0.57;;;;;;;5.05;76.84;95892.66;6247223;23;20397;-76
2023/01/15 12:06:37;;;;;;;0.55;0.20;;;;;;;5.06;76.25;95896.03;6247186;23;20032;-77
2023/01/15 12:09:14;;;;;;;1.75;0.35;;;;;;;5.03;76.44;95897.19;6245296;23;20038;-77
2023/01/15 12:11:57;;;;;;;0.90;0.77;;;;;;;5.07;77.85;95900.22;6246940;23;20020;-78
2023/01/15 12:14:38;;;;;;;0.15;0.15;;;;;;;5.05;76.71;95902.16;6246916;23;20020;-79
2023/01/15 12:17:20;;;;;;;0.20;0.20;;;;;;;5.04;75.95;95908.31;6247180;23;20020;-79
2023/01/15 12:19:58;;;;;;;0.30;0.20;;;;;;;5.06;77.93;95919.31;6257696;23;20011;-74
2023/01/15 12:22:43;;;;;;;0.10;0.10;;;;;;;5.08;76.36;95919.94;6268718;23;20031;-77
2023/01/15 12:25:24;;;;;;;0.10;0.10;;;;;;;5.00;74.45;95925.91;6259061;23;20507;-78
2023/01/15 12:27:57;;;;;;;0.17;0.10;;;;;;;4.91;75.16;95930.28;6247192;23;20079;-77
2023/01/15 12:30:32;;;;;;;0.32;0.20;;;;;;;4.90;76.75;95928.69;6247042;23;20333;-78
2023/01/15 12:33:16;;;;;;;1.00;0.17;;;;;;;4.93;74.79;95932.72;6247114;23;20040;-77
2023/01/15 12:35:55;;;;;;;2.50;0.20;;;;;;;4.95;75.21;95934.16;6247397;23;20020;-78
2023/01/15 12:38:35;;;;;;;2.60;0.68;;;;;;;4.95;75.93;95931.59;6246714;23;20043;-77
2023/01/15 12:41:07;;;;;;;3.08;1.45;;;;;;;5.03;78.12;95937.69;6252137;23;20031;-80
2023/01/15 12:46:27;;;;;;;1.38;0.77;;;;;;;5.20;77.42;95962.56;6246672;23;20020;-80
2023/01/15 12:49:02;;;;;;;1.25;0.80;;;;;;;5.25;75.79;95967.28;6246089;23;20026;-78
2023/01/15 12:51:36;;;;;;;0.50;0.40;;;;;;;5.24;76.89;95966.44;6249016;23;20468;-78
2023/01/15 12:54:11;;;;;;;1.15;0.30;;;;;;;5.28;75.73;95977.28;6252536;22;20032;-80
2023/01/15 12:56:50;;;;;;;0.30;0.25;;;;;;;5.28;75.43;95972.91;6251163;23;20020;-77
2023/01/15 12:59:25;;;;;;;0.25;0.25;;;;;;;5.25;76.06;95969.88;6249510;23;20102;-76
2023/01/15 13:02:08;;;;;;;2.85;0.80;;;;;;;5.29;77.60;95977.13;6246361;23;20016;-79
2023/01/15 13:04:44;;;;;;;0.43;0.30;;;;;;;5.29;74.14;95969.38;6246049;23;20026;-80
2023/01/15 13:07:19;;;;;;;0.30;0.30;;;;;;;5.22;75.36;95977.94;6268410;23;20024;-80
2023/01/15 13:09:56;;;;;;;0.30;0.20;;;;;;;5.21;74.94;95976.31;6271601;23;20035;-80
2023/01/15 13:12:25;;;;;;;0.50;0.28;;;;;;;5.18;75.71;95967.09;6257482;23;20448;-81